sensor_id;sensor_type;location;lat;lon;timestamp;P1;P2;P0
62981;PMS5003;49075;53.988;27.678;2023-05-07T00:01:29;15;14.4;11.4
62981;PMS5003;49075;53.988;27.678;2023-05-07T00:06:31;15;14.6;10.4
62981;PMS5003;49075;53.988;27.678;2023-05-07T00:11:47;12.5;12.5;9.3
62981;PMS5003;49075;53.988;27.678;2023-05-07T00:16:41;15.6;15.2;11.2
62981;PMS5003;49075;53.988;27.678;2023-05-07T00:21:45;15.2;15;10.8
62981;PMS5003;49075;53.988;27.678;2023-05-07T00:26:21;14.2;13.8;10.4
62981;PMS5003;49075;53.988;27.678;2023-05-07T00:31:21;13.2;13.2;9.2
62981;PMS5003;49075;53.988;27.678;2023-05-07T00:36:41;14.8;14.4;10.2
62981;PMS5003;49075;53.988;27.678;2023-05-07T00:41:21;14.4;14.4;10.6
62981;PMS5003;49075;53.988;27.678;2023-05-07T00:46:21;14.8;14;10.8
62981;PMS5003;49075;53.988;27.678;2023-05-07T00:51:35;14.8;14;10.2
62981;PMS5003;49075;53.988;27.678;2023-05-07T00:56:21;12.8;12.8;9.4
62981;PMS5003;49075;53.988;27.678;2023-05-07T01:01:21;14.2;13.8;10
62981;PMS5003;49075;53.988;27.678;2023-05-07T01:06:21;15.8;14.4;11.2
62981;PMS5003;49075;53.988;27.678;2023-05-07T01:11:21;15.5;15.5;10.8
62981;PMS5003;49075;53.988;27.678;2023-05-07T01:16:37;18.6;18.6;12.4
62981;PMS5003;49075;53.988;27.678;2023-05-07T01:21:35;15.6;14.8;11.2
62981;PMS5003;49075;53.988;27.678;2023-05-07T01:26:27;10.8;10;7
62981;PMS5003;49075;53.988;27.678;2023-05-07T01:31:21;12.2;12;7.8
62981;PMS5003;49075;53.988;27.678;2023-05-07T01:36:41;15;14.6;10
62981;PMS5003;49075;53.988;27.678;2023-05-07T01:41:21;14;13.2;10.2
62981;PMS5003;49075;53.988;27.678;2023-05-07T01:46:31;19.6;19;15.2
62981;PMS5003;49075;53.988;27.678;2023-05-07T01:51:31;23;22.2;17.8
62981;PMS5003;49075;53.988;27.678;2023-05-07T01:56:27;25.2;24.8;21.8
62981;PMS5003;49075;53.988;27.678;2023-05-07T02:01:31;30.8;29.2;21.4
62981;PMS5003;49075;53.988;27.678;2023-05-07T02:06:31;34.8;34.6;25.8
62981;PMS5003;49075;53.988;27.678;2023-05-07T02:11:37;32.3;31;22.3
62981;PMS5003;49075;53.988;27.678;2023-05-07T02:16:35;37;36;25.6
62981;PMS5003;49075;53.988;27.678;2023-05-07T02:21:21;41.4;39;30.4
62981;PMS5003;49075;53.988;27.678;2023-05-07T02:26:31;47.6;43.4;33.4
62981;PMS5003;49075;53.988;27.678;2023-05-07T02:31:35;51.2;45.8;34
62981;PMS5003;49075;53.988;27.678;2023-05-07T02:36:21;46;42.8;33.4
62981;PMS5003;49075;53.988;27.678;2023-05-07T02:41:41;28.4;28;21.8
62981;PMS5003;49075;53.988;27.678;2023-05-07T02:46:35;18;17.4;12.6
62981;PMS5003;49075;53.988;27.678;2023-05-07T02:51:22;19;18;12.6
62981;PMS5003;49075;53.988;27.678;2023-05-07T02:56:45;14.8;14.2;10.4
62981;PMS5003;49075;53.988;27.678;2023-05-07T03:01:21;17;15.8;11.2
62981;PMS5003;49075;53.988;27.678;2023-05-07T03:06:37;16.4;16;12
62981;PMS5003;49075;53.988;27.678;2023-05-07T03:11:31;17;17;11.8
62981;PMS5003;49075;53.988;27.678;2023-05-07T03:16:31;17.4;17;12.6
62981;PMS5003;49075;53.988;27.678;2023-05-07T03:21:53;15.2;14;10.4
62981;PMS5003;49075;53.988;27.678;2023-05-07T03:26:45;16;15.8;11.6
62981;PMS5003;49075;53.988;27.678;2023-05-07T03:31:31;17.6;17.6;12.8
62981;PMS5003;49075;53.988;27.678;2023-05-07T03:36:35;27.8;27.2;22.6
62981;PMS5003;49075;53.988;27.678;2023-05-07T03:41:21;25;24.4;19.4
62981;PMS5003;49075;53.988;27.678;2023-05-07T03:46:29;38.6;37.2;28.2
62981;PMS5003;49075;53.988;27.678;2023-05-07T03:51:41;22.2;21.4;15
62981;PMS5003;49075;53.988;27.678;2023-05-07T03:56:35;12.4;11.6;6.6
62981;PMS5003;49075;53.988;27.678;2023-05-07T04:01:21;9.8;9.4;6.6
62981;PMS5003;49075;53.988;27.678;2023-05-07T04:06:45;15.2;14.2;8.8
62981;PMS5003;49075;53.988;27.678;2023-05-07T04:11:45;13.8;13;9
62981;PMS5003;49075;53.988;27.678;2023-05-07T04:16:21;15.4;14.8;10.6
62981;PMS5003;49075;53.988;27.678;2023-05-07T04:21:31;14.8;14.6;10.2
62981;PMS5003;49075;53.988;27.678;2023-05-07T04:26:21;13.8;13.6;10.6
62981;PMS5003;49075;53.988;27.678;2023-05-07T04:31:31;17.4;16;11.2
62981;PMS5003;49075;53.988;27.678;2023-05-07T04:36:41;13.4;12.8;10.2
62981;PMS5003;49075;53.988;27.678;2023-05-07T04:41:21;14.8;14.4;10.2
62981;PMS5003;49075;53.988;27.678;2023-05-07T04:46:21;15.8;15.8;11.6
62981;PMS5003;49075;53.988;27.678;2023-05-07T04:51:37;13.8;13;9.4
62981;PMS5003;49075;53.988;27.678;2023-05-07T04:56:31;14.2;13.2;10
62981;PMS5003;49075;53.988;27.678;2023-05-07T05:01:21;15.4;14.6;10.8
62981;PMS5003;49075;53.988;27.678;2023-05-07T05:06:21;16.6;16;11
62981;PMS5003;49075;53.988;27.678;2023-05-07T05:11:21;16.6;16.4;11.8
62981;PMS5003;49075;53.988;27.678;2023-05-07T05:16:27;17.3;17;13.3
62981;PMS5003;49075;53.988;27.678;2023-05-07T05:21:45;17.4;17.2;13
62981;PMS5003;49075;53.988;27.678;2023-05-07T05:26:31;16.4;15.6;11.2
62981;PMS5003;49075;53.988;27.678;2023-05-07T05:31:21;16.4;15.6;11.6
62981;PMS5003;49075;53.988;27.678;2023-05-07T05:36:41;17.4;17.4;12.2
62981;PMS5003;49075;53.988;27.678;2023-05-07T05:41:41;18.2;17.4;13
62981;PMS5003;49075;53.988;27.678;2023-05-07T05:46:21;17.2;17;12.6
62981;PMS5003;49075;53.988;27.678;2023-05-07T05:51:21;17.2;16.6;11.8
62981;PMS5003;49075;53.988;27.678;2023-05-07T05:56:49;18;17.8;12.8
62981;PMS5003;49075;53.988;27.678;2023-05-07T06:01:32;20.6;18.6;15
62981;PMS5003;49075;53.988;27.678;2023-05-07T06:06:35;17.2;16.4;13
62981;PMS5003;49075;53.988;27.678;2023-05-07T06:11:21;19.4;19;13.2
62981;PMS5003;49075;53.988;27.678;2023-05-07T06:16:37;18.5;18.5;12.8
62981;PMS5003;49075;53.988;27.678;2023-05-07T06:21:33;35.6;34.4;23
62981;PMS5003;49075;53.988;27.678;2023-05-07T06:26:39;45.8;39.2;25
62981;PMS5003;49075;53.988;27.678;2023-05-07T06:31:31;29.6;27.2;17.8
62981;PMS5003;49075;53.988;27.678;2023-05-07T06:36:45;18.2;17.6;13.4
62981;PMS5003;49075;53.988;27.678;2023-05-07T06:41:22;50.2;42.2;27
62981;PMS5003;49075;53.988;27.678;2023-05-07T06:46:21;23.8;22.6;15.2
62981;PMS5003;49075;53.988;27.678;2023-05-07T06:51:21;12.6;12.6;9.2
62981;PMS5003;49075;53.988;27.678;2023-05-07T06:56:53;14.8;14;11.2
62981;PMS5003;49075;53.988;27.678;2023-05-07T07:01:35;17.6;17.2;13
62981;PMS5003;49075;53.988;27.678;2023-05-07T07:06:54;34;30.4;20.2
62981;PMS5003;49075;53.988;27.678;2023-05-07T07:11:21;14.4;13.8;10.8
62981;PMS5003;49075;53.988;27.678;2023-05-07T07:16:35;14;12.8;11.3
62981;PMS5003;49075;53.988;27.678;2023-05-07T07:21:41;13.8;13.4;10
62981;PMS5003;49075;53.988;27.678;2023-05-07T07:26:21;15.6;15.4;11
62981;PMS5003;49075;53.988;27.678;2023-05-07T07:31:35;13.6;12.4;9.4
62981;PMS5003;49075;53.988;27.678;2023-05-07T07:36:41;14.6;13.8;10.4
62981;PMS5003;49075;53.988;27.678;2023-05-07T07:41:35;15.6;15.2;11.8
62981;PMS5003;49075;53.988;27.678;2023-05-07T07:46:35;16.6;16.4;12
62981;PMS5003;49075;53.988;27.678;2023-05-07T07:51:21;14.6;13.8;10.4
62981;PMS5003;49075;53.988;27.678;2023-05-07T07:56:21;26;22.8;15.4
62981;PMS5003;49075;53.988;27.678;2023-05-07T08:01:21;52.4;46;28.2
62981;PMS5003;49075;53.988;27.678;2023-05-07T08:06:27;14.6;14.2;11.2
62981;PMS5003;49075;53.988;27.678;2023-05-07T08:11:47;16.2;16;11.2
62981;PMS5003;49075;53.988;27.678;2023-05-07T08:16:21;17.5;17;11.3
62981;PMS5003;49075;53.988;27.678;2023-05-07T08:21:21;13.6;12.6;9.2
62981;PMS5003;49075;53.988;27.678;2023-05-07T08:26:29;14.8;14.2;10.8
62981;PMS5003;49075;53.988;27.678;2023-05-07T08:31:35;16.6;15.2;11.2
62981;PMS5003;49075;53.988;27.678;2023-05-07T08:36:21;17.2;16.4;12.6
62981;PMS5003;49075;53.988;27.678;2023-05-07T08:41:35;54;48;29
62981;PMS5003;49075;53.988;27.678;2023-05-07T08:46:45;21;20;14.2
62981;PMS5003;49075;53.988;27.678;2023-05-07T08:51:45;18.8;17.8;12.6
62981;PMS5003;49075;53.988;27.678;2023-05-07T08:56:21;16.2;16;12
62981;PMS5003;49075;53.988;27.678;2023-05-07T09:01:22;15.2;15.2;10.8
62981;PMS5003;49075;53.988;27.678;2023-05-07T09:06:31;20.2;19.4;14.4
62981;PMS5003;49075;53.988;27.678;2023-05-07T09:11:21;18.8;18;13
62981;PMS5003;49075;53.988;27.678;2023-05-07T09:16:28;15.5;15;11.3
62981;PMS5003;49075;53.988;27.678;2023-05-07T09:21:37;19.4;18.8;13.8
62981;PMS5003;49075;53.988;27.678;2023-05-07T09:26:49;19;17.8;13.6
62981;PMS5003;49075;53.988;27.678;2023-05-07T09:31:21;19;18.2;14
62981;PMS5003;49075;53.988;27.678;2023-05-07T09:36:32;18;17.8;12.6
62981;PMS5003;49075;53.988;27.678;2023-05-07T09:41:36;16.6;16.6;11.8
62981;PMS5003;49075;53.988;27.678;2023-05-07T09:46:24;18.6;18.2;14
62981;PMS5003;49075;53.988;27.678;2023-05-07T09:51:37;15.8;15.4;12.6
62981;PMS5003;49075;53.988;27.678;2023-05-07T09:56:35;18.6;18;13.6
62981;PMS5003;49075;53.988;27.678;2023-05-07T10:01:21;18.4;17.6;13.2
62981;PMS5003;49075;53.988;27.678;2023-05-07T10:06:58;18;17.4;13.2
62981;PMS5003;49075;53.988;27.678;2023-05-07T10:11:36;17.8;17;12.3
62981;PMS5003;49075;53.988;27.678;2023-05-07T10:21:36;16.3;16;12.3
62981;PMS5003;49075;53.988;27.678;2023-05-07T10:26:22;17;16.6;12.6
62981;PMS5003;49075;53.988;27.678;2023-05-07T10:31:36;16;14.8;11.4
62981;PMS5003;49075;53.988;27.678;2023-05-07T10:36:35;16;15;11
62981;PMS5003;49075;53.988;27.678;2023-05-07T10:41:42;17.3;16.3;12.5
62981;PMS5003;49075;53.988;27.678;2023-05-07T10:46:33;17;17;13.5
62981;PMS5003;49075;53.988;27.678;2023-05-07T10:51:36;16.8;15.6;11.2
62981;PMS5003;49075;53.988;27.678;2023-05-07T10:56:36;14.8;14;10.6
62981;PMS5003;49075;53.988;27.678;2023-05-07T11:01:54;14.4;14.2;11.6
62981;PMS5003;49075;53.988;27.678;2023-05-07T11:06:42;17.8;17.8;13.8
62981;PMS5003;49075;53.988;27.678;2023-05-07T11:11:59;15.8;15;11.4
62981;PMS5003;49075;53.988;27.678;2023-05-07T11:16:36;19;18.7;14.3
62981;PMS5003;49075;53.988;27.678;2023-05-07T11:22:02;16.8;15.6;11.4
62981;PMS5003;49075;53.988;27.678;2023-05-07T11:26:22;13.4;12.8;9.8
62981;PMS5003;49075;53.988;27.678;2023-05-07T11:31:23;16.8;15.8;11.8
62981;PMS5003;49075;53.988;27.678;2023-05-07T11:36:22;16;15.6;12
62981;PMS5003;49075;53.988;27.678;2023-05-07T11:41:22;11.7;11.3;8.7
62981;PMS5003;49075;53.988;27.678;2023-05-07T11:46:28;17.4;16.6;12.4
62981;PMS5003;49075;53.988;27.678;2023-05-07T11:51:36;13.6;13.4;9.4
62981;PMS5003;49075;53.988;27.678;2023-05-07T11:56:46;14.6;13.8;9.6
62981;PMS5003;49075;53.988;27.678;2023-05-07T12:01:22;17.2;16.6;12.8
62981;PMS5003;49075;53.988;27.678;2023-05-07T12:06:36;14;13.4;10.4
62981;PMS5003;49075;53.988;27.678;2023-05-07T12:11:22;13.2;13;10.2
62981;PMS5003;49075;53.988;27.678;2023-05-07T12:16:36;15.2;14.6;12
62981;PMS5003;49075;53.988;27.678;2023-05-07T12:21:22;15.8;15.4;11.4
62981;PMS5003;49075;53.988;27.678;2023-05-07T12:26:32;14;13.4;10
62981;PMS5003;49075;53.988;27.678;2023-05-07T12:31:54;16.2;15;11.2
62981;PMS5003;49075;53.988;27.678;2023-05-07T12:36:35;17.8;17.6;12.8
62981;PMS5003;49075;53.988;27.678;2023-05-07T12:41:53;13.3;13;10.5
62981;PMS5003;49075;53.988;27.678;2023-05-07T12:46:22;16.8;16;11.3
62981;PMS5003;49075;53.988;27.678;2023-05-07T12:51:28;16.2;15.4;12
62981;PMS5003;49075;53.988;27.678;2023-05-07T12:56:22;14.6;14.4;11.2
62981;PMS5003;49075;53.988;27.678;2023-05-07T13:01:36;15.4;15.4;11.8
62981;PMS5003;49075;53.988;27.678;2023-05-07T13:06:38;13.2;13;10.6
62981;PMS5003;49075;53.988;27.678;2023-05-07T13:11:50;17;17;10.8
62981;PMS5003;49075;53.988;27.678;2023-05-07T13:16:22;20.4;20.4;13.8
62981;PMS5003;49075;53.988;27.678;2023-05-07T13:21:22;25.8;24.8;17.2
62981;PMS5003;49075;53.988;27.678;2023-05-07T13:26:36;17;16.8;13
62981;PMS5003;49075;53.988;27.678;2023-05-07T13:31:22;14.6;14.4;11.4
62981;PMS5003;49075;53.988;27.678;2023-05-07T13:36:22;17.2;17.2;12.2
62981;PMS5003;49075;53.988;27.678;2023-05-07T13:41:42;35.3;30;19.5
62981;PMS5003;49075;53.988;27.678;2023-05-07T13:46:36;56.8;47;29.8
62981;PMS5003;49075;53.988;27.678;2023-05-07T13:51:22;18.8;17.6;12.8
62981;PMS5003;49075;53.988;27.678;2023-05-07T13:56:22;18.2;17.4;11.8
62981;PMS5003;49075;53.988;27.678;2023-05-07T14:01:22;12.8;12.4;9.8
62981;PMS5003;49075;53.988;27.678;2023-05-07T14:06:36;15.8;15.6;11.6
62981;PMS5003;49075;53.988;27.678;2023-05-07T14:11:50;15;14.6;11.4
62981;PMS5003;49075;53.988;27.678;2023-05-07T14:16:22;14;13.4;10.8
62981;PMS5003;49075;53.988;27.678;2023-05-07T14:21:32;20;19.6;13.8
62981;PMS5003;49075;53.988;27.678;2023-05-07T14:26:50;13.6;13.4;10.8
62981;PMS5003;49075;53.988;27.678;2023-05-07T14:31:22;13.6;13.6;11
62981;PMS5003;49075;53.988;27.678;2023-05-07T14:36:22;18;17;12.6
62981;PMS5003;49075;53.988;27.678;2023-05-07T14:41:46;14.8;14.8;10.8
62981;PMS5003;49075;53.988;27.678;2023-05-07T14:46:42;16;15.4;11.6
62981;PMS5003;49075;53.988;27.678;2023-05-07T14:51:22;16.4;16;12.2
62981;PMS5003;49075;53.988;27.678;2023-05-07T14:56:36;16.8;16.6;11.4
62981;PMS5003;49075;53.988;27.678;2023-05-07T15:01:52;18;18;13
62981;PMS5003;49075;53.988;27.678;2023-05-07T15:06:22;17.4;16.8;11.6
62981;PMS5003;49075;53.988;27.678;2023-05-07T15:11:22;19.8;18.6;13.8
62981;PMS5003;49075;53.988;27.678;2023-05-07T15:16:22;24;22.8;16
62981;PMS5003;49075;53.988;27.678;2023-05-07T15:21:22;17;17;12.4
62981;PMS5003;49075;53.988;27.678;2023-05-07T15:26:28;13.4;13.4;10
62981;PMS5003;49075;53.988;27.678;2023-05-07T15:31:22;32.8;28;19
62981;PMS5003;49075;53.988;27.678;2023-05-07T15:36:22;34.6;31.2;21.6
62981;PMS5003;49075;53.988;27.678;2023-05-07T15:41:22;15.3;15.3;11.5
62981;PMS5003;49075;53.988;27.678;2023-05-07T15:46:36;12.8;12.4;9
62981;PMS5003;49075;53.988;27.678;2023-05-07T15:51:36;17.2;16.8;12
62981;PMS5003;49075;53.988;27.678;2023-05-07T15:56:36;13;12.4;9.6
62981;PMS5003;49075;53.988;27.678;2023-05-07T16:01:32;15;14.6;10.8
62981;PMS5003;49075;53.988;27.678;2023-05-07T16:06:22;17.2;17;11.8
62981;PMS5003;49075;53.988;27.678;2023-05-07T16:11:22;30.4;27;17.6
62981;PMS5003;49075;53.988;27.678;2023-05-07T16:17:10;29;27.4;18.2
62981;PMS5003;49075;53.988;27.678;2023-05-07T16:21:22;14.8;13.8;10
62981;PMS5003;49075;53.988;27.678;2023-05-07T16:26:28;17.2;17.2;12.6
62981;PMS5003;49075;53.988;27.678;2023-05-07T16:31:36;21.8;20.2;14.8
62981;PMS5003;49075;53.988;27.678;2023-05-07T16:36:22;13.4;13;9.8
62981;PMS5003;49075;53.988;27.678;2023-05-07T16:41:32;18.2;18;13.2
62981;PMS5003;49075;53.988;27.678;2023-05-07T16:46:42;45.3;39;25.3
62981;PMS5003;49075;53.988;27.678;2023-05-07T16:51:36;30.6;28.8;19.6
62981;PMS5003;49075;53.988;27.678;2023-05-07T16:56:22;15.2;14.4;11.8
62981;PMS5003;49075;53.988;27.678;2023-05-07T17:01:36;20.2;19.8;14.2
62981;PMS5003;49075;53.988;27.678;2023-05-07T17:06:30;21.4;21;15
62981;PMS5003;49075;53.988;27.678;2023-05-07T17:11:48;18.4;17.8;12.8
62981;PMS5003;49075;53.988;27.678;2023-05-07T17:16:50;16.8;16.2;12
62981;PMS5003;49075;53.988;27.678;2023-05-07T17:21:22;18.2;17.6;12.8
62981;PMS5003;49075;53.988;27.678;2023-05-07T17:26:30;18.6;18.2;14.2
62981;PMS5003;49075;53.988;27.678;2023-05-07T17:31:22;25.2;24;16
62981;PMS5003;49075;53.988;27.678;2023-05-07T17:36:22;25.2;24;16.4
62981;PMS5003;49075;53.988;27.678;2023-05-07T17:41:38;22.2;21.2;15.2
62981;PMS5003;49075;53.988;27.678;2023-05-07T17:46:22;22.8;21.8;15.5
62981;PMS5003;49075;53.988;27.678;2023-05-07T17:51:42;23.8;22;15.6
62981;PMS5003;49075;53.988;27.678;2023-05-07T17:56:22;23.8;23;16.6
62981;PMS5003;49075;53.988;27.678;2023-05-07T18:01:46;24.5;24;17.8
62981;PMS5003;49075;53.988;27.678;2023-05-07T18:06:22;72;67.8;42.2
62981;PMS5003;49075;53.988;27.678;2023-05-07T18:11:22;122;111.8;67.8
62981;PMS5003;49075;53.988;27.678;2023-05-07T18:16:28;46.2;39.8;26.6
62981;PMS5003;49075;53.988;27.678;2023-05-07T18:22:02;31;30;20.4
62981;PMS5003;49075;53.988;27.678;2023-05-07T18:26:36;27;26;17.8
62981;PMS5003;49075;53.988;27.678;2023-05-07T18:31:36;26;25.6;19.6
62981;PMS5003;49075;53.988;27.678;2023-05-07T18:36:28;27.2;26;18.4
62981;PMS5003;49075;53.988;27.678;2023-05-07T18:41:22;28.4;27.2;18.4
62981;PMS5003;49075;53.988;27.678;2023-05-07T18:46:22;81.4;73.6;45.4
62981;PMS5003;49075;53.988;27.678;2023-05-07T18:51:22;61.6;52.6;34.2
62981;PMS5003;49075;53.988;27.678;2023-05-07T18:56:22;34.5;33.5;23
62981;PMS5003;49075;53.988;27.678;2023-05-07T19:01:44;34.8;32.8;22
62981;PMS5003;49075;53.988;27.678;2023-05-07T19:06:22;29.8;29.4;19.6
62981;PMS5003;49075;53.988;27.678;2023-05-07T19:11:36;28.8;27.8;19.4
62981;PMS5003;49075;53.988;27.678;2023-05-07T19:16:30;41.4;36.2;25.8
62981;PMS5003;49075;53.988;27.678;2023-05-07T19:21:22;57.6;48.2;31.6
62981;PMS5003;49075;53.988;27.678;2023-05-07T19:26:44;31.2;29.4;20.6
62981;PMS5003;49075;53.988;27.678;2023-05-07T19:31:28;41.6;36.4;24.6
62981;PMS5003;49075;53.988;27.678;2023-05-07T19:36:22;72;59.4;37.8
62981;PMS5003;49075;53.988;27.678;2023-05-07T19:41:50;35.4;31.4;21
62981;PMS5003;49075;53.988;27.678;2023-05-07T19:46:32;31;29.2;19.8
62981;PMS5003;49075;53.988;27.678;2023-05-07T19:51:22;30.2;28.8;19.8
62981;PMS5003;49075;53.988;27.678;2023-05-07T19:56:46;32.8;28.8;20.5
62981;PMS5003;49075;53.988;27.678;2023-05-07T20:01:32;27.8;26.2;18.4
62981;PMS5003;49075;53.988;27.678;2023-05-07T20:06:42;28;26.4;19.4
62981;PMS5003;49075;53.988;27.678;2023-05-07T20:11:38;27;25.6;18.8
62981;PMS5003;49075;53.988;27.678;2023-05-07T20:16:32;26.8;26.2;17.4
62981;PMS5003;49075;53.988;27.678;2023-05-07T20:21:22;23.6;23;16.2
62981;PMS5003;49075;53.988;27.678;2023-05-07T20:26:22;24;23.2;15.6
62981;PMS5003;49075;53.988;27.678;2023-05-07T20:31:44;24;23.8;17.6
62981;PMS5003;49075;53.988;27.678;2023-05-07T20:36:48;26.2;25.8;18
62981;PMS5003;49075;53.988;27.678;2023-05-07T20:41:36;22;21.8;16
62981;PMS5003;49075;53.988;27.678;2023-05-07T20:46:33;23.6;23.4;17.2
62981;PMS5003;49075;53.988;27.678;2023-05-07T20:51:36;23.8;23.2;16.6
62981;PMS5003;49075;53.988;27.678;2023-05-07T20:56:28;21.4;20.8;15.2
62981;PMS5003;49075;53.988;27.678;2023-05-07T21:01:22;18.2;18.2;12.8
62981;PMS5003;49075;53.988;27.678;2023-05-07T21:06:22;18.8;17.6;13.2
62981;PMS5003;49075;53.988;27.678;2023-05-07T21:11:32;18.4;17.2;11.8
62981;PMS5003;49075;53.988;27.678;2023-05-07T21:16:22;17.6;17.4;12.4
62981;PMS5003;49075;53.988;27.678;2023-05-07T21:21:42;18.8;18;13.6
62981;PMS5003;49075;53.988;27.678;2023-05-07T21:26:46;16.8;16.2;11.6
62981;PMS5003;49075;53.988;27.678;2023-05-07T21:31:22;20.4;20.2;14.6
62981;PMS5003;49075;53.988;27.678;2023-05-07T21:36:22;22;20.8;15
62981;PMS5003;49075;53.988;27.678;2023-05-07T21:41:22;24;23.5;16.3
62981;PMS5003;49075;53.988;27.678;2023-05-07T21:46:22;18.2;18.2;13.8
62981;PMS5003;49075;53.988;27.678;2023-05-07T21:51:22;20.2;19.6;14
62981;PMS5003;49075;53.988;27.678;2023-05-07T21:56:36;18;17.8;14.4
62981;PMS5003;49075;53.988;27.678;2023-05-07T22:01:22;20.4;19.8;15.6
62981;PMS5003;49075;53.988;27.678;2023-05-07T22:06:22;19.2;18.6;14.6
62981;PMS5003;49075;53.988;27.678;2023-05-07T22:11:22;16.8;16.4;12.4
62981;PMS5003;49075;53.988;27.678;2023-05-07T22:16:22;19.2;17.4;12.6
62981;PMS5003;49075;53.988;27.678;2023-05-07T22:21:32;22.2;20.6;15.8
62981;PMS5003;49075;53.988;27.678;2023-05-07T22:26:32;22.8;22.6;16.4
62981;PMS5003;49075;53.988;27.678;2023-05-07T22:31:22;27.4;27;19.2
62981;PMS5003;49075;53.988;27.678;2023-05-07T22:36:42;26.6;25.8;17.4
62981;PMS5003;49075;53.988;27.678;2023-05-07T22:41:36;20;19.3;15
62981;PMS5003;49075;53.988;27.678;2023-05-07T22:46:36;20.2;19.4;13.8
62981;PMS5003;49075;53.988;27.678;2023-05-07T22:51:22;21.4;21;16.2
62981;PMS5003;49075;53.988;27.678;2023-05-07T22:56:42;21.8;21.8;14.8
62981;PMS5003;49075;53.988;27.678;2023-05-07T23:01:22;20.6;20.6;15.4
62981;PMS5003;49075;53.988;27.678;2023-05-07T23:06:22;20.2;20;15
62981;PMS5003;49075;53.988;27.678;2023-05-07T23:11:36;18.8;17.2;13
62981;PMS5003;49075;53.988;27.678;2023-05-07T23:16:36;18.2;17.6;13.6
62981;PMS5003;49075;53.988;27.678;2023-05-07T23:21:32;23.6;23.2;16.8
62981;PMS5003;49075;53.988;27.678;2023-05-07T23:26:22;21.6;20.8;15.2
62981;PMS5003;49075;53.988;27.678;2023-05-07T23:31:28;20.2;19.8;14.8
62981;PMS5003;49075;53.988;27.678;2023-05-07T23:36:40;21;20.6;14.2
62981;PMS5003;49075;53.988;27.678;2023-05-07T23:41:50;22;20;15.3
62981;PMS5003;49075;53.988;27.678;2023-05-07T23:46:46;23.4;22.6;16.4
62981;PMS5003;49075;53.988;27.678;2023-05-07T23:51:40;19.2;19;15
62981;PMS5003;49075;53.988;27.678;2023-05-07T23:56:36;22.8;21.2;15.2
